sensor_id;sensor_type;location;lat;lon;timestamp;temperature;humidity
80937;DHT22;70395;51.382;7.074;2023-07-22T00:00:50;14.50;59.40
80937;DHT22;70395;51.382;7.074;2023-07-22T00:03:16;14.50;59.50
80937;DHT22;70395;51.382;7.074;2023-07-22T00:05:42;14.50;59.70
80937;DHT22;70395;51.382;7.074;2023-07-22T00:08:09;14.50;59.80
80937;DHT22;70395;51.382;7.074;2023-07-22T00:10:35;14.40;59.80
80937;DHT22;70395;51.382;7.074;2023-07-22T00:13:00;14.40;60.00
80937;DHT22;70395;51.382;7.074;2023-07-22T00:15:26;14.40;60.10
80937;DHT22;70395;51.382;7.074;2023-07-22T00:17:52;14.40;60.20
80937;DHT22;70395;51.382;7.074;2023-07-22T00:20:18;14.40;60.40
80937;DHT22;70395;51.382;7.074;2023-07-22T00:22:45;14.40;60.40
80937;DHT22;70395;51.382;7.074;2023-07-22T00:25:11;14.40;60.30
80937;DHT22;70395;51.382;7.074;2023-07-22T00:27:39;14.40;60.40
80937;DHT22;70395;51.382;7.074;2023-07-22T00:30:09;14.40;60.50
80937;DHT22;70395;51.382;7.074;2023-07-22T00:32:35;14.40;60.80
80937;DHT22;70395;51.382;7.074;2023-07-22T00:35:06;14.40;60.70
80937;DHT22;70395;51.382;7.074;2023-07-22T00:37:33;14.40;60.70
80937;DHT22;70395;51.382;7.074;2023-07-22T00:39:58;14.50;61.10
80937;DHT22;70395;51.382;7.074;2023-07-22T00:42:24;14.50;60.90
80937;DHT22;70395;51.382;7.074;2023-07-22T00:44:50;14.50;61.20
80937;DHT22;70395;51.382;7.074;2023-07-22T00:47:17;14.50;61.50
80937;DHT22;70395;51.382;7.074;2023-07-22T00:49:47;14.50;61.80
80937;DHT22;70395;51.382;7.074;2023-07-22T00:52:14;14.60;61.80
80937;DHT22;70395;51.382;7.074;2023-07-22T00:54:39;14.60;61.70
80937;DHT22;70395;51.382;7.074;2023-07-22T00:57:06;14.70;62.20
80937;DHT22;70395;51.382;7.074;2023-07-22T00:59:32;14.70;62.30
80937;DHT22;70395;51.382;7.074;2023-07-22T01:01:58;14.80;61.80
80937;DHT22;70395;51.382;7.074;2023-07-22T01:04:24;14.80;61.60
80937;DHT22;70395;51.382;7.074;2023-07-22T01:06:51;14.80;61.40
80937;DHT22;70395;51.382;7.074;2023-07-22T01:09:20;14.90;61.50
80937;DHT22;70395;51.382;7.074;2023-07-22T01:11:46;14.90;61.40
80937;DHT22;70395;51.382;7.074;2023-07-22T01:14:12;14.90;61.60
80937;DHT22;70395;51.382;7.074;2023-07-22T01:16:38;14.90;61.40
80937;DHT22;70395;51.382;7.074;2023-07-22T01:19:04;15.00;61.60
80937;DHT22;70395;51.382;7.074;2023-07-22T01:21:32;15.00;61.60
80937;DHT22;70395;51.382;7.074;2023-07-22T01:23:59;15.10;61.70
80937;DHT22;70395;51.382;7.074;2023-07-22T01:26:25;15.10;61.50
80937;DHT22;70395;51.382;7.074;2023-07-22T01:28:51;15.20;61.30
80937;DHT22;70395;51.382;7.074;2023-07-22T01:31:16;15.20;61.10
80937;DHT22;70395;51.382;7.074;2023-07-22T01:33:42;15.30;61.10
80937;DHT22;70395;51.382;7.074;2023-07-22T01:36:08;15.40;61.00
80937;DHT22;70395;51.382;7.074;2023-07-22T01:38:34;15.40;60.80
80937;DHT22;70395;51.382;7.074;2023-07-22T01:41:01;15.50;61.20
80937;DHT22;70395;51.382;7.074;2023-07-22T01:43:26;15.60;60.50
80937;DHT22;70395;51.382;7.074;2023-07-22T01:45:52;15.70;60.30
80937;DHT22;70395;51.382;7.074;2023-07-22T01:48:18;15.80;60.30
80937;DHT22;70395;51.382;7.074;2023-07-22T01:50:44;15.80;60.10
80937;DHT22;70395;51.382;7.074;2023-07-22T01:53:10;15.90;60.10
80937;DHT22;70395;51.382;7.074;2023-07-22T01:55:36;15.90;59.90
80937;DHT22;70395;51.382;7.074;2023-07-22T01:58:01;16.00;59.80
80937;DHT22;70395;51.382;7.074;2023-07-22T02:00:27;16.10;59.60
80937;DHT22;70395;51.382;7.074;2023-07-22T02:02:53;16.10;59.40
80937;DHT22;70395;51.382;7.074;2023-07-22T02:05:19;16.20;59.30
80937;DHT22;70395;51.382;7.074;2023-07-22T02:07:46;16.20;59.30
80937;DHT22;70395;51.382;7.074;2023-07-22T02:10:12;16.30;59.10
80937;DHT22;70395;51.382;7.074;2023-07-22T02:12:38;16.40;58.90
80937;DHT22;70395;51.382;7.074;2023-07-22T02:15:04;16.50;59.00
80937;DHT22;70395;51.382;7.074;2023-07-22T02:17:31;16.40;58.70
80937;DHT22;70395;51.382;7.074;2023-07-22T02:19:57;16.50;58.80
80937;DHT22;70395;51.382;7.074;2023-07-22T02:22:22;16.50;58.60
80937;DHT22;70395;51.382;7.074;2023-07-22T02:24:48;16.50;58.50
80937;DHT22;70395;51.382;7.074;2023-07-22T02:27:14;16.60;58.40
80937;DHT22;70395;51.382;7.074;2023-07-22T02:29:40;16.60;58.40
80937;DHT22;70395;51.382;7.074;2023-07-22T02:32:06;16.60;58.10
80937;DHT22;70395;51.382;7.074;2023-07-22T02:34:32;16.60;58.10
80937;DHT22;70395;51.382;7.074;2023-07-22T02:36:58;16.70;58.10
80937;DHT22;70395;51.382;7.074;2023-07-22T02:39:23;16.70;57.90
80937;DHT22;70395;51.382;7.074;2023-07-22T02:41:49;16.70;57.80
80937;DHT22;70395;51.382;7.074;2023-07-22T02:44:15;16.70;57.70
80937;DHT22;70395;51.382;7.074;2023-07-22T02:46:41;16.70;57.50
80937;DHT22;70395;51.382;7.074;2023-07-22T02:49:06;16.80;57.40
80937;DHT22;70395;51.382;7.074;2023-07-22T02:51:32;16.80;57.20
80937;DHT22;70395;51.382;7.074;2023-07-22T02:53:58;16.80;57.10
80937;DHT22;70395;51.382;7.074;2023-07-22T02:56:24;16.80;57.00
80937;DHT22;70395;51.382;7.074;2023-07-22T02:58:50;16.80;56.90
80937;DHT22;70395;51.382;7.074;2023-07-22T03:01:16;16.80;56.80
80937;DHT22;70395;51.382;7.074;2023-07-22T03:03:42;16.80;56.80
80937;DHT22;70395;51.382;7.074;2023-07-22T03:06:08;16.90;56.80
80937;DHT22;70395;51.382;7.074;2023-07-22T03:08:35;16.90;56.70
80937;DHT22;70395;51.382;7.074;2023-07-22T03:11:01;16.90;56.70
80937;DHT22;70395;51.382;7.074;2023-07-22T03:13:29;16.90;56.50
80937;DHT22;70395;51.382;7.074;2023-07-22T03:15:55;16.90;56.40
80937;DHT22;70395;51.382;7.074;2023-07-22T03:18:22;16.90;56.30
80937;DHT22;70395;51.382;7.074;2023-07-22T03:20:48;16.90;56.20
80937;DHT22;70395;51.382;7.074;2023-07-22T03:23:14;17.00;56.20
80937;DHT22;70395;51.382;7.074;2023-07-22T03:25:40;16.90;55.90
80937;DHT22;70395;51.382;7.074;2023-07-22T03:28:07;17.00;55.90
80937;DHT22;70395;51.382;7.074;2023-07-22T03:30:33;17.00;55.90
80937;DHT22;70395;51.382;7.074;2023-07-22T03:32:59;17.00;55.80
80937;DHT22;70395;51.382;7.074;2023-07-22T03:35:26;17.00;55.70
80937;DHT22;70395;51.382;7.074;2023-07-22T03:37:52;17.00;55.60
80937;DHT22;70395;51.382;7.074;2023-07-22T03:40:18;17.00;55.50
80937;DHT22;70395;51.382;7.074;2023-07-22T03:42:52;17.10;55.70
80937;DHT22;70395;51.382;7.074;2023-07-22T03:45:20;17.10;55.30
80937;DHT22;70395;51.382;7.074;2023-07-22T03:47:50;17.10;55.30
80937;DHT22;70395;51.382;7.074;2023-07-22T03:50:17;17.10;55.20
80937;DHT22;70395;51.382;7.074;2023-07-22T03:52:43;17.20;55.30
80937;DHT22;70395;51.382;7.074;2023-07-22T03:55:09;17.20;55.30
80937;DHT22;70395;51.382;7.074;2023-07-22T03:57:36;17.20;55.30
80937;DHT22;70395;51.382;7.074;2023-07-22T04:00:02;17.20;55.10
80937;DHT22;70395;51.382;7.074;2023-07-22T04:02:31;17.20;55.00
80937;DHT22;70395;51.382;7.074;2023-07-22T04:04:57;17.30;55.10
80937;DHT22;70395;51.382;7.074;2023-07-22T04:07:23;17.20;55.10
80937;DHT22;70395;51.382;7.074;2023-07-22T04:09:49;17.30;55.00
80937;DHT22;70395;51.382;7.074;2023-07-22T04:12:15;17.30;54.90
80937;DHT22;70395;51.382;7.074;2023-07-22T04:14:41;17.30;54.90
80937;DHT22;70395;51.382;7.074;2023-07-22T04:17:09;17.30;55.00
80937;DHT22;70395;51.382;7.074;2023-07-22T04:19:35;17.30;54.90
80937;DHT22;70395;51.382;7.074;2023-07-22T04:22:01;17.30;55.00
80937;DHT22;70395;51.382;7.074;2023-07-22T04:24:30;17.40;54.90
80937;DHT22;70395;51.382;7.074;2023-07-22T04:26:57;17.40;55.10
80937;DHT22;70395;51.382;7.074;2023-07-22T04:29:23;17.40;55.10
80937;DHT22;70395;51.382;7.074;2023-07-22T04:31:48;17.40;55.00
80937;DHT22;70395;51.382;7.074;2023-07-22T04:34:14;17.40;55.10
80937;DHT22;70395;51.382;7.074;2023-07-22T04:36:40;17.50;54.90
80937;DHT22;70395;51.382;7.074;2023-07-22T04:39:06;17.50;54.90
80937;DHT22;70395;51.382;7.074;2023-07-22T04:41:33;17.50;54.90
80937;DHT22;70395;51.382;7.074;2023-07-22T04:43:58;17.50;54.60
80937;DHT22;70395;51.382;7.074;2023-07-22T04:46:27;17.50;54.60
80937;DHT22;70395;51.382;7.074;2023-07-22T04:48:57;17.60;54.80
80937;DHT22;70395;51.382;7.074;2023-07-22T04:51:26;17.60;54.70
80937;DHT22;70395;51.382;7.074;2023-07-22T04:53:52;17.60;54.80
80937;DHT22;70395;51.382;7.074;2023-07-22T04:56:17;17.60;54.50
80937;DHT22;70395;51.382;7.074;2023-07-22T04:58:43;17.60;54.60
80937;DHT22;70395;51.382;7.074;2023-07-22T05:01:09;17.70;54.40
80937;DHT22;70395;51.382;7.074;2023-07-22T05:03:35;17.70;54.30
80937;DHT22;70395;51.382;7.074;2023-07-22T05:06:01;17.70;54.30
80937;DHT22;70395;51.382;7.074;2023-07-22T05:08:27;17.70;54.30
80937;DHT22;70395;51.382;7.074;2023-07-22T05:10:53;17.80;54.40
80937;DHT22;70395;51.382;7.074;2023-07-22T05:13:19;17.80;54.40
80937;DHT22;70395;51.382;7.074;2023-07-22T05:15:44;17.90;54.40
80937;DHT22;70395;51.382;7.074;2023-07-22T05:18:10;17.90;54.40
80937;DHT22;70395;51.382;7.074;2023-07-22T05:20:38;17.90;54.40
80937;DHT22;70395;51.382;7.074;2023-07-22T05:23:04;18.00;54.60
80937;DHT22;70395;51.382;7.074;2023-07-22T05:25:30;18.00;54.40
80937;DHT22;70395;51.382;7.074;2023-07-22T05:27:56;18.00;54.50
80937;DHT22;70395;51.382;7.074;2023-07-22T05:30:22;18.00;54.30
80937;DHT22;70395;51.382;7.074;2023-07-22T05:32:47;18.00;54.30
80937;DHT22;70395;51.382;7.074;2023-07-22T05:35:16;18.10;54.10
80937;DHT22;70395;51.382;7.074;2023-07-22T05:37:42;18.10;54.20
80937;DHT22;70395;51.382;7.074;2023-07-22T05:40:09;18.10;54.20
80937;DHT22;70395;51.382;7.074;2023-07-22T05:42:35;18.00;54.10
80937;DHT22;70395;51.382;7.074;2023-07-22T05:45:02;18.10;54.20
80937;DHT22;70395;51.382;7.074;2023-07-22T05:47:28;18.00;54.00
80937;DHT22;70395;51.382;7.074;2023-07-22T05:49:54;18.00;53.90
80937;DHT22;70395;51.382;7.074;2023-07-22T05:52:20;18.00;54.30
80937;DHT22;70395;51.382;7.074;2023-07-22T05:54:46;18.00;54.20
80937;DHT22;70395;51.382;7.074;2023-07-22T05:57:12;18.10;54.30
80937;DHT22;70395;51.382;7.074;2023-07-22T05:59:37;18.20;54.40
80937;DHT22;70395;51.382;7.074;2023-07-22T06:02:05;18.30;54.40
80937;DHT22;70395;51.382;7.074;2023-07-22T06:04:31;18.30;54.40
80937;DHT22;70395;51.382;7.074;2023-07-22T06:06:57;18.40;54.40
80937;DHT22;70395;51.382;7.074;2023-07-22T06:09:23;18.50;54.10
80937;DHT22;70395;51.382;7.074;2023-07-22T06:11:49;18.60;54.30
80937;DHT22;70395;51.382;7.074;2023-07-22T06:14:15;18.70;54.30
80937;DHT22;70395;51.382;7.074;2023-07-22T06:16:41;18.80;54.40
80937;DHT22;70395;51.382;7.074;2023-07-22T06:19:06;18.80;54.20
80937;DHT22;70395;51.382;7.074;2023-07-22T06:21:32;18.90;53.80
80937;DHT22;70395;51.382;7.074;2023-07-22T06:23:58;19.00;53.90
80937;DHT22;70395;51.382;7.074;2023-07-22T06:26:24;19.00;54.00
80937;DHT22;70395;51.382;7.074;2023-07-22T06:28:49;19.10;54.00
80937;DHT22;70395;51.382;7.074;2023-07-22T06:31:15;19.20;54.00
80937;DHT22;70395;51.382;7.074;2023-07-22T06:33:42;19.30;53.70
80937;DHT22;70395;51.382;7.074;2023-07-22T06:36:08;19.40;53.10
80937;DHT22;70395;51.382;7.074;2023-07-22T06:38:33;19.50;53.20
80937;DHT22;70395;51.382;7.074;2023-07-22T06:40:59;19.60;53.20
80937;DHT22;70395;51.382;7.074;2023-07-22T06:43:25;19.70;53.20
80937;DHT22;70395;51.382;7.074;2023-07-22T06:45:51;19.80;52.80
80937;DHT22;70395;51.382;7.074;2023-07-22T06:48:17;19.90;53.30
80937;DHT22;70395;51.382;7.074;2023-07-22T06:50:49;20.10;53.40
80937;DHT22;70395;51.382;7.074;2023-07-22T06:53:15;20.20;52.40
80937;DHT22;70395;51.382;7.074;2023-07-22T06:55:51;20.30;52.40
80937;DHT22;70395;51.382;7.074;2023-07-22T06:58:21;20.40;51.40
80937;DHT22;70395;51.382;7.074;2023-07-22T07:00:55;20.60;51.70
80937;DHT22;70395;51.382;7.074;2023-07-22T07:03:22;20.70;51.40
80937;DHT22;70395;51.382;7.074;2023-07-22T07:05:53;20.90;51.80
80937;DHT22;70395;51.382;7.074;2023-07-22T07:08:22;21.00;51.70
80937;DHT22;70395;51.382;7.074;2023-07-22T07:10:49;21.20;51.20
80937;DHT22;70395;51.382;7.074;2023-07-22T07:13:16;21.40;51.60
80937;DHT22;70395;51.382;7.074;2023-07-22T07:15:46;21.50;50.70
80937;DHT22;70395;51.382;7.074;2023-07-22T07:18:16;21.60;50.90
80937;DHT22;70395;51.382;7.074;2023-07-22T07:20:42;21.60;50.40
80937;DHT22;70395;51.382;7.074;2023-07-22T07:23:08;21.70;50.70
80937;DHT22;70395;51.382;7.074;2023-07-22T07:25:34;21.80;50.30
80937;DHT22;70395;51.382;7.074;2023-07-22T07:28:00;21.90;50.20
80937;DHT22;70395;51.382;7.074;2023-07-22T07:30:25;22.10;50.40
80937;DHT22;70395;51.382;7.074;2023-07-22T07:32:51;22.20;50.00
80937;DHT22;70395;51.382;7.074;2023-07-22T07:35:17;22.40;49.50
80937;DHT22;70395;51.382;7.074;2023-07-22T07:37:43;22.50;49.70
80937;DHT22;70395;51.382;7.074;2023-07-22T07:40:09;22.60;49.10
80937;DHT22;70395;51.382;7.074;2023-07-22T07:42:35;22.60;49.10
80937;DHT22;70395;51.382;7.074;2023-07-22T07:45:01;22.70;49.00
80937;DHT22;70395;51.382;7.074;2023-07-22T07:47:27;22.80;49.50
80937;DHT22;70395;51.382;7.074;2023-07-22T07:49:52;22.90;48.90
80937;DHT22;70395;51.382;7.074;2023-07-22T07:52:18;23.00;48.70
80937;DHT22;70395;51.382;7.074;2023-07-22T07:54:44;23.00;48.40
80937;DHT22;70395;51.382;7.074;2023-07-22T07:57:10;23.10;48.00
80937;DHT22;70395;51.382;7.074;2023-07-22T07:59:36;23.10;48.10
80937;DHT22;70395;51.382;7.074;2023-07-22T08:02:01;23.20;48.10
80937;DHT22;70395;51.382;7.074;2023-07-22T08:04:29;23.30;48.20
80937;DHT22;70395;51.382;7.074;2023-07-22T08:06:55;23.30;47.80
80937;DHT22;70395;51.382;7.074;2023-07-22T08:09:21;23.40;48.00
80937;DHT22;70395;51.382;7.074;2023-07-22T08:11:46;23.50;47.20
80937;DHT22;70395;51.382;7.074;2023-07-22T08:14:12;23.60;47.10
80937;DHT22;70395;51.382;7.074;2023-07-22T08:16:39;23.60;47.30
80937;DHT22;70395;51.382;7.074;2023-07-22T08:19:05;23.70;47.00
80937;DHT22;70395;51.382;7.074;2023-07-22T08:21:30;23.70;47.00
80937;DHT22;70395;51.382;7.074;2023-07-22T08:23:56;23.70;47.40
80937;DHT22;70395;51.382;7.074;2023-07-22T08:26:23;23.70;46.50
80937;DHT22;70395;51.382;7.074;2023-07-22T08:28:48;23.60;46.50
80937;DHT22;70395;51.382;7.074;2023-07-22T08:31:14;23.60;46.20
80937;DHT22;70395;51.382;7.074;2023-07-22T08:33:40;23.60;46.20
80937;DHT22;70395;51.382;7.074;2023-07-22T08:36:06;23.60;46.60
80937;DHT22;70395;51.382;7.074;2023-07-22T08:38:32;23.60;46.70
80937;DHT22;70395;51.382;7.074;2023-07-22T08:40:58;23.60;46.60
80937;DHT22;70395;51.382;7.074;2023-07-22T08:43:24;23.70;46.40
80937;DHT22;70395;51.382;7.074;2023-07-22T08:45:53;23.70;46.50
80937;DHT22;70395;51.382;7.074;2023-07-22T08:48:21;23.70;46.40
80937;DHT22;70395;51.382;7.074;2023-07-22T08:50:59;23.80;47.00
80937;DHT22;70395;51.382;7.074;2023-07-22T08:53:29;23.90;47.00
80937;DHT22;70395;51.382;7.074;2023-07-22T08:55:56;24.10;46.50
80937;DHT22;70395;51.382;7.074;2023-07-22T08:58:23;24.20;45.90
80937;DHT22;70395;51.382;7.074;2023-07-22T09:00:51;24.30;46.20
80937;DHT22;70395;51.382;7.074;2023-07-22T09:03:18;24.50;45.80
80937;DHT22;70395;51.382;7.074;2023-07-22T09:05:45;24.60;46.00
80937;DHT22;70395;51.382;7.074;2023-07-22T09:08:12;24.80;45.20
80937;DHT22;70395;51.382;7.074;2023-07-22T09:10:38;25.10;44.00
80937;DHT22;70395;51.382;7.074;2023-07-22T09:13:05;25.30;44.20
80937;DHT22;70395;51.382;7.074;2023-07-22T09:15:35;25.60;44.30
80937;DHT22;70395;51.382;7.074;2023-07-22T09:18:03;25.90;43.00
80937;DHT22;70395;51.382;7.074;2023-07-22T09:20:29;26.20;42.90
80937;DHT22;70395;51.382;7.074;2023-07-22T09:22:55;26.50;42.00
80937;DHT22;70395;51.382;7.074;2023-07-22T09:25:23;26.70;41.00
80937;DHT22;70395;51.382;7.074;2023-07-22T09:27:55;26.80;41.50
80937;DHT22;70395;51.382;7.074;2023-07-22T09:30:37;26.90;40.90
80937;DHT22;70395;51.382;7.074;2023-07-22T09:33:05;26.90;40.00
80937;DHT22;70395;51.382;7.074;2023-07-22T09:35:54;26.80;40.40
80937;DHT22;70395;51.382;7.074;2023-07-22T09:38:24;26.70;40.50
80937;DHT22;70395;51.382;7.074;2023-07-22T09:40:51;26.70;39.30
80937;DHT22;70395;51.382;7.074;2023-07-22T09:43:18;26.60;40.30
80937;DHT22;70395;51.382;7.074;2023-07-22T09:45:47;26.50;40.00
80937;DHT22;70395;51.382;7.074;2023-07-22T09:48:14;26.40;40.00
80937;DHT22;70395;51.382;7.074;2023-07-22T09:50:40;26.40;40.10
80937;DHT22;70395;51.382;7.074;2023-07-22T09:53:06;26.50;41.10
80937;DHT22;70395;51.382;7.074;2023-07-22T09:55:33;26.70;40.90
80937;DHT22;70395;51.382;7.074;2023-07-22T09:58:01;26.80;40.50
80937;DHT22;70395;51.382;7.074;2023-07-22T10:00:33;26.90;39.80
80937;DHT22;70395;51.382;7.074;2023-07-22T10:03:02;26.90;39.90
80937;DHT22;70395;51.382;7.074;2023-07-22T10:05:34;26.90;39.80
80937;DHT22;70395;51.382;7.074;2023-07-22T10:08:02;26.90;39.70
80937;DHT22;70395;51.382;7.074;2023-07-22T10:10:37;26.90;39.80
80937;DHT22;70395;51.382;7.074;2023-07-22T10:13:04;26.90;39.60
80937;DHT22;70395;51.382;7.074;2023-07-22T10:15:32;26.80;39.60
80937;DHT22;70395;51.382;7.074;2023-07-22T10:18:00;26.70;39.60
80937;DHT22;70395;51.382;7.074;2023-07-22T10:20:29;26.80;39.30
80937;DHT22;70395;51.382;7.074;2023-07-22T10:22:55;27.00;39.60
80937;DHT22;70395;51.382;7.074;2023-07-22T10:25:22;27.30;40.30
80937;DHT22;70395;51.382;7.074;2023-07-22T10:27:49;27.60;39.50
80937;DHT22;70395;51.382;7.074;2023-07-22T10:30:18;27.90;38.80
80937;DHT22;70395;51.382;7.074;2023-07-22T10:32:46;28.30;38.30
80937;DHT22;70395;51.382;7.074;2023-07-22T10:38:16;29.10;36.30
80937;DHT22;70395;51.382;7.074;2023-07-22T10:40:46;29.40;35.90
80937;DHT22;70395;51.382;7.074;2023-07-22T10:43:16;29.50;36.90
80937;DHT22;70395;51.382;7.074;2023-07-22T10:45:48;29.60;35.60
80937;DHT22;70395;51.382;7.074;2023-07-22T10:48:17;29.50;35.00
80937;DHT22;70395;51.382;7.074;2023-07-22T10:50:51;29.50;35.40
80937;DHT22;70395;51.382;7.074;2023-07-22T10:56:14;29.90;33.60
80937;DHT22;70395;51.382;7.074;2023-07-22T11:01:39;30.60;33.80
80937;DHT22;70395;51.382;7.074;2023-07-22T11:14:29;32.40;30.80
80937;DHT22;70395;51.382;7.074;2023-07-22T11:17:00;32.60;31.00
80937;DHT22;70395;51.382;7.074;2023-07-22T11:19:29;32.80;30.80
80937;DHT22;70395;51.382;7.074;2023-07-22T11:21:56;32.90;30.90
80937;DHT22;70395;51.382;7.074;2023-07-22T11:24:23;33.00;30.80
80937;DHT22;70395;51.382;7.074;2023-07-22T11:26:51;33.00;29.90
80937;DHT22;70395;51.382;7.074;2023-07-22T11:29:18;33.10;30.00
80937;DHT22;70395;51.382;7.074;2023-07-22T11:31:46;33.20;29.90
80937;DHT22;70395;51.382;7.074;2023-07-22T11:34:15;33.30;29.70
80937;DHT22;70395;51.382;7.074;2023-07-22T11:36:42;33.40;29.60
80937;DHT22;70395;51.382;7.074;2023-07-22T11:39:17;33.30;29.20
80937;DHT22;70395;51.382;7.074;2023-07-22T11:41:45;33.30;28.80
80937;DHT22;70395;51.382;7.074;2023-07-22T11:44:14;33.20;29.40
80937;DHT22;70395;51.382;7.074;2023-07-22T11:46:50;33.10;30.40
80937;DHT22;70395;51.382;7.074;2023-07-22T11:49:40;33.00;29.50
80937;DHT22;70395;51.382;7.074;2023-07-22T11:52:12;33.00;29.90
80937;DHT22;70395;51.382;7.074;2023-07-22T11:54:44;32.90;29.80
80937;DHT22;70395;51.382;7.074;2023-07-22T11:57:22;32.90;29.70
80937;DHT22;70395;51.382;7.074;2023-07-22T11:59:49;32.70;29.50
80937;DHT22;70395;51.382;7.074;2023-07-22T12:02:24;32.50;29.30
80937;DHT22;70395;51.382;7.074;2023-07-22T12:05:00;32.30;29.70
80937;DHT22;70395;51.382;7.074;2023-07-22T12:07:38;32.10;29.80
80937;DHT22;70395;51.382;7.074;2023-07-22T12:10:06;32.10;29.60
80937;DHT22;70395;51.382;7.074;2023-07-22T12:12:41;32.00;30.10
80937;DHT22;70395;51.382;7.074;2023-07-22T12:15:13;32.00;29.20
80937;DHT22;70395;51.382;7.074;2023-07-22T12:17:58;32.00;29.50
80937;DHT22;70395;51.382;7.074;2023-07-22T12:20:26;31.90;30.00
80937;DHT22;70395;51.382;7.074;2023-07-22T12:22:54;31.80;29.50
80937;DHT22;70395;51.382;7.074;2023-07-22T12:25:22;31.80;29.80
80937;DHT22;70395;51.382;7.074;2023-07-22T12:27:48;31.90;30.00
80937;DHT22;70395;51.382;7.074;2023-07-22T12:30:15;31.90;29.20
80937;DHT22;70395;51.382;7.074;2023-07-22T12:32:41;31.90;29.20
80937;DHT22;70395;51.382;7.074;2023-07-22T12:35:07;31.80;28.30
80937;DHT22;70395;51.382;7.074;2023-07-22T12:37:34;31.60;29.10
80937;DHT22;70395;51.382;7.074;2023-07-22T12:40:00;31.50;29.70
80937;DHT22;70395;51.382;7.074;2023-07-22T12:42:26;31.50;31.80
80937;DHT22;70395;51.382;7.074;2023-07-22T12:44:52;31.60;31.40
80937;DHT22;70395;51.382;7.074;2023-07-22T12:47:18;31.80;29.40
80937;DHT22;70395;51.382;7.074;2023-07-22T12:49:44;31.90;29.60
80937;DHT22;70395;51.382;7.074;2023-07-22T12:52:09;31.90;30.70
80937;DHT22;70395;51.382;7.074;2023-07-22T12:54:36;31.90;30.00
80937;DHT22;70395;51.382;7.074;2023-07-22T12:57:02;31.90;29.60
80937;DHT22;70395;51.382;7.074;2023-07-22T12:59:28;31.70;29.20
80937;DHT22;70395;51.382;7.074;2023-07-22T13:01:54;31.50;29.90
80937;DHT22;70395;51.382;7.074;2023-07-22T13:04:19;31.40;30.10
80937;DHT22;70395;51.382;7.074;2023-07-22T13:06:45;31.40;30.00
80937;DHT22;70395;51.382;7.074;2023-07-22T13:09:11;31.40;30.00
80937;DHT22;70395;51.382;7.074;2023-07-22T13:11:37;31.30;29.50
80937;DHT22;70395;51.382;7.074;2023-07-22T13:14:03;31.20;30.60
80937;DHT22;70395;51.382;7.074;2023-07-22T13:16:29;31.00;29.50
80937;DHT22;70395;51.382;7.074;2023-07-22T13:18:55;30.80;29.70
80937;DHT22;70395;51.382;7.074;2023-07-22T13:21:20;30.60;29.80
80937;DHT22;70395;51.382;7.074;2023-07-22T13:23:46;30.60;31.10
80937;DHT22;70395;51.382;7.074;2023-07-22T13:26:12;30.50;30.80
80937;DHT22;70395;51.382;7.074;2023-07-22T13:28:38;30.70;29.90
80937;DHT22;70395;51.382;7.074;2023-07-22T13:31:03;30.80;29.90
80937;DHT22;70395;51.382;7.074;2023-07-22T13:33:29;30.80;29.00
80937;DHT22;70395;51.382;7.074;2023-07-22T13:35:56;30.80;30.20
80937;DHT22;70395;51.382;7.074;2023-07-22T13:38:22;30.80;29.70
80937;DHT22;70395;51.382;7.074;2023-07-22T13:40:47;30.70;30.40
80937;DHT22;70395;51.382;7.074;2023-07-22T13:43:13;30.70;30.50
80937;DHT22;70395;51.382;7.074;2023-07-22T13:45:39;30.50;29.90
80937;DHT22;70395;51.382;7.074;2023-07-22T13:48:06;30.50;30.80
80937;DHT22;70395;51.382;7.074;2023-07-22T13:50:32;30.30;30.80
80937;DHT22;70395;51.382;7.074;2023-07-22T13:52:58;30.20;31.20
80937;DHT22;70395;51.382;7.074;2023-07-22T13:55:23;30.20;31.30
80937;DHT22;70395;51.382;7.074;2023-07-22T13:57:49;30.10;31.00
80937;DHT22;70395;51.382;7.074;2023-07-22T14:00:15;30.00;31.10
80937;DHT22;70395;51.382;7.074;2023-07-22T14:02:41;29.90;30.30
80937;DHT22;70395;51.382;7.074;2023-07-22T14:05:07;29.90;31.60
80937;DHT22;70395;51.382;7.074;2023-07-22T14:07:35;29.80;31.00
80937;DHT22;70395;51.382;7.074;2023-07-22T14:10:02;29.80;30.00
80937;DHT22;70395;51.382;7.074;2023-07-22T14:12:29;30.00;29.40
80937;DHT22;70395;51.382;7.074;2023-07-22T14:14:55;30.10;29.90
80937;DHT22;70395;51.382;7.074;2023-07-22T14:17:21;30.20;29.30
80937;DHT22;70395;51.382;7.074;2023-07-22T14:19:47;30.20;29.30
80937;DHT22;70395;51.382;7.074;2023-07-22T14:22:13;30.40;29.90
80937;DHT22;70395;51.382;7.074;2023-07-22T14:24:38;30.50;29.20
80937;DHT22;70395;51.382;7.074;2023-07-22T14:27:04;30.70;30.00
80937;DHT22;70395;51.382;7.074;2023-07-22T14:29:30;30.80;28.70
80937;DHT22;70395;51.382;7.074;2023-07-22T14:31:56;30.90;28.10
80937;DHT22;70395;51.382;7.074;2023-07-22T14:34:23;30.90;28.30
80937;DHT22;70395;51.382;7.074;2023-07-22T14:36:49;31.00;28.80
80937;DHT22;70395;51.382;7.074;2023-07-22T14:39:16;31.10;28.60
80937;DHT22;70395;51.382;7.074;2023-07-22T14:41:42;31.30;28.70
80937;DHT22;70395;51.382;7.074;2023-07-22T14:44:09;31.50;28.10
80937;DHT22;70395;51.382;7.074;2023-07-22T14:46:35;31.80;28.50
80937;DHT22;70395;51.382;7.074;2023-07-22T14:49:02;31.90;27.80
80937;DHT22;70395;51.382;7.074;2023-07-22T14:51:29;32.10;28.30
80937;DHT22;70395;51.382;7.074;2023-07-22T14:53:55;32.20;28.00
80937;DHT22;70395;51.382;7.074;2023-07-22T14:56:21;32.40;27.70
80937;DHT22;70395;51.382;7.074;2023-07-22T14:58:46;32.50;27.50
80937;DHT22;70395;51.382;7.074;2023-07-22T15:01:14;32.50;27.40
80937;DHT22;70395;51.382;7.074;2023-07-22T15:03:40;32.50;27.30
80937;DHT22;70395;51.382;7.074;2023-07-22T15:06:06;32.40;28.10
80937;DHT22;70395;51.382;7.074;2023-07-22T15:08:32;32.20;27.50
80937;DHT22;70395;51.382;7.074;2023-07-22T15:10:58;32.00;27.30
80937;DHT22;70395;51.382;7.074;2023-07-22T15:13:24;31.80;27.50
80937;DHT22;70395;51.382;7.074;2023-07-22T15:15:50;31.50;28.20
80937;DHT22;70395;51.382;7.074;2023-07-22T15:18:17;31.30;28.20
80937;DHT22;70395;51.382;7.074;2023-07-22T15:20:43;31.10;28.30
80937;DHT22;70395;51.382;7.074;2023-07-22T15:23:09;30.90;28.50
80937;DHT22;70395;51.382;7.074;2023-07-22T15:25:35;30.70;29.40
80937;DHT22;70395;51.382;7.074;2023-07-22T15:28:00;30.50;28.70
80937;DHT22;70395;51.382;7.074;2023-07-22T15:30:26;30.30;29.40
80937;DHT22;70395;51.382;7.074;2023-07-22T15:32:52;30.20;29.70
80937;DHT22;70395;51.382;7.074;2023-07-22T15:35:18;30.00;29.60
80937;DHT22;70395;51.382;7.074;2023-07-22T15:37:44;29.90;29.40
80937;DHT22;70395;51.382;7.074;2023-07-22T15:40:11;29.80;29.50
80937;DHT22;70395;51.382;7.074;2023-07-22T15:42:37;29.70;29.90
80937;DHT22;70395;51.382;7.074;2023-07-22T15:45:03;29.50;29.50
80937;DHT22;70395;51.382;7.074;2023-07-22T15:47:29;29.40;29.60